createdAt,value
2018-08-09T00:02:11.999Z,24.00
2018-08-09T00:04:44.025Z,23.90
2018-08-09T00:07:15.855Z,23.90
2018-08-09T00:09:47.361Z,23.80
2018-08-09T00:12:19.372Z,23.80
2018-08-09T00:14:50.890Z,23.80
2018-08-09T00:17:22.244Z,23.80
2018-08-09T00:19:53.533Z,23.70
2018-08-09T00:22:25.054Z,23.70
2018-08-09T00:24:57.377Z,23.70
2018-08-09T00:27:29.240Z,23.60
2018-08-09T00:30:00.419Z,23.60
2018-08-09T00:32:33.820Z,23.60
2018-08-09T00:35:05.601Z,23.60
2018-08-09T00:37:36.959Z,23.60
2018-08-09T00:40:08.999Z,23.60
2018-08-09T00:42:41.152Z,23.60
2018-08-09T00:45:15.614Z,23.50
2018-08-09T00:47:46.957Z,23.50
2018-08-09T00:50:18.106Z,23.50
2018-08-09T00:52:54.039Z,23.50
2018-08-09T00:55:25.369Z,23.50
2018-08-09T00:57:57.037Z,23.40
2018-08-09T01:00:28.289Z,23.40
2018-08-09T01:03:01.085Z,23.40
2018-08-09T01:05:33.519Z,23.30
2018-08-09T01:08:05.016Z,23.30
2018-08-09T01:10:36.491Z,23.30
2018-08-09T01:13:12.592Z,23.30
2018-08-09T01:15:43.809Z,23.30
2018-08-09T01:18:15.348Z,23.30
2018-08-09T01:20:46.899Z,23.20
2018-08-09T01:23:19.088Z,23.20
2018-08-09T01:25:50.929Z,23.20
2018-08-09T01:28:23.026Z,23.10
2018-08-09T01:30:54.609Z,23.10
2018-08-09T01:33:26.588Z,23.10
2018-08-09T01:35:58.168Z,23.10
2018-08-09T01:38:29.706Z,23.10
2018-08-09T01:41:01.316Z,23.00
2018-08-09T01:43:43.632Z,23.00
2018-08-09T01:46:15.286Z,23.00
2018-08-09T01:48:47.143Z,23.00
2018-08-09T01:51:18.860Z,23.00
2018-08-09T01:53:50.643Z,22.90
2018-08-09T01:56:22.216Z,22.90
2018-08-09T01:58:54.471Z,22.90
2018-08-09T02:01:27.139Z,22.90
2018-08-09T02:03:58.755Z,22.90
2018-08-09T02:06:30.513Z,22.80
2018-08-09T02:09:06.915Z,22.80
2018-08-09T02:11:38.399Z,22.80
2018-08-09T02:14:09.767Z,22.80
2018-08-09T02:16:41.828Z,22.80
2018-08-09T02:19:13.184Z,22.70
2018-08-09T02:21:45.875Z,22.70
2018-08-09T02:24:17.380Z,22.70
2018-08-09T02:26:48.805Z,22.70
2018-08-09T02:29:21.472Z,22.70
2018-08-09T02:31:53.274Z,22.70
2018-08-09T02:34:25.113Z,22.60
2018-08-09T02:36:57.173Z,22.70
2018-08-09T02:39:28.473Z,22.70
2018-08-09T02:41:59.714Z,22.70
2018-08-09T02:44:31.157Z,22.60
2018-08-09T02:47:02.684Z,22.60
2018-08-09T02:49:33.622Z,22.60
2018-08-09T02:52:06.214Z,22.60
2018-08-09T02:54:38.527Z,22.60
2018-08-09T02:57:09.787Z,22.50
2018-08-09T02:59:41.188Z,22.50
2018-08-09T03:02:12.760Z,22.50
2018-08-09T03:04:44.701Z,22.50
2018-08-09T03:07:16.895Z,22.50
2018-08-09T03:09:48.908Z,22.40
2018-08-09T03:12:20.403Z,22.40
2018-08-09T03:14:52.584Z,22.40
2018-08-09T03:17:24.002Z,22.40
2018-08-09T03:19:54.963Z,22.40
2018-08-09T03:22:26.303Z,22.40
2018-08-09T03:24:58.372Z,22.30
2018-08-09T03:27:30.000Z,22.30
2018-08-09T03:30:01.684Z,22.30
2018-08-09T03:32:32.957Z,22.30
2018-08-09T03:35:04.066Z,22.20
2018-08-09T03:37:35.141Z,22.20
2018-08-09T03:40:06.713Z,22.20
2018-08-09T03:42:38.700Z,22.20
2018-08-09T03:45:10.036Z,22.20
2018-08-09T03:47:41.231Z,22.10
2018-08-09T03:50:12.523Z,22.10
2018-08-09T03:52:44.863Z,22.10
2018-08-09T03:55:16.783Z,22.10
2018-08-09T03:57:47.860Z,22.00
2018-08-09T04:00:54.967Z,22.00
2018-08-09T04:03:40.140Z,22.00
2018-08-09T04:06:11.980Z,22.00
2018-08-09T04:08:43.544Z,22.00
2018-08-09T04:11:14.967Z,22.00
2018-08-09T04:13:46.062Z,22.00
2018-08-09T04:16:17.244Z,21.90
2018-08-09T04:18:49.316Z,21.90
2018-08-09T04:21:21.561Z,21.90
2018-08-09T04:23:53.709Z,21.90
2018-08-09T04:26:25.186Z,21.90
2018-08-09T04:28:56.784Z,21.90
2018-08-09T04:31:29.156Z,21.90
2018-08-09T04:34:00.974Z,21.80
2018-08-09T04:36:32.088Z,21.80
2018-08-09T04:39:04.221Z,21.80
2018-08-09T04:41:35.613Z,21.70
2018-08-09T04:44:06.657Z,21.70
2018-08-09T04:46:38.199Z,21.70
2018-08-09T04:49:10.284Z,21.70
2018-08-09T04:51:41.841Z,21.70
2018-08-09T04:54:13.091Z,21.70
2018-08-09T04:56:44.379Z,21.70
2018-08-09T04:59:15.955Z,21.70
2018-08-09T05:01:47.321Z,21.60
2018-08-09T05:04:18.545Z,21.70
2018-08-09T05:06:49.678Z,21.60
2018-08-09T05:09:21.024Z,21.60
2018-08-09T05:11:52.228Z,21.60
2018-08-09T05:14:23.597Z,21.60
2018-08-09T05:16:55.233Z,21.60
2018-08-09T05:19:26.719Z,21.60
2018-08-09T05:21:58.406Z,21.50
2018-08-09T05:24:30.388Z,21.60
2018-08-09T05:27:01.712Z,21.60
2018-08-09T05:29:34.159Z,21.50
2018-08-09T05:32:05.983Z,21.50
2018-08-09T05:34:37.761Z,21.50
2018-08-09T05:37:08.985Z,21.50
2018-08-09T05:39:40.551Z,21.50
2018-08-09T05:42:12.094Z,21.50
2018-08-09T05:44:43.502Z,21.50
2018-08-09T05:47:14.700Z,21.50
2018-08-09T05:49:46.410Z,21.50
2018-08-09T05:52:17.993Z,21.50
2018-08-09T05:54:49.503Z,21.40
2018-08-09T05:57:21.263Z,21.50
2018-08-09T05:59:52.755Z,21.50
2018-08-09T06:02:26.680Z,21.50
2018-08-09T06:04:57.760Z,21.50
2018-08-09T06:07:29.556Z,21.50
2018-08-09T06:10:00.704Z,21.50
2018-08-09T06:12:32.788Z,21.50
2018-08-09T06:15:04.576Z,21.50
2018-08-09T06:17:35.970Z,21.50
2018-08-09T06:20:07.845Z,21.50
2018-08-09T06:22:39.790Z,21.50
2018-08-09T06:25:11.098Z,21.50
2018-08-09T06:27:44.045Z,21.50
2018-08-09T06:30:15.829Z,21.50
2018-08-09T06:32:47.152Z,21.50
2018-08-09T06:35:18.639Z,21.50
2018-08-09T06:37:51.240Z,21.50
2018-08-09T06:40:23.250Z,21.50
2018-08-09T06:42:55.144Z,21.50
2018-08-09T06:45:27.077Z,21.50
2018-08-09T06:48:04.491Z,21.50
2018-08-09T06:50:35.964Z,21.50
2018-08-09T06:53:08.629Z,21.50
2018-08-09T06:55:41.157Z,21.50
2018-08-09T06:58:13.342Z,21.50
2018-08-09T07:00:45.333Z,21.60
2018-08-09T07:03:17.280Z,21.50
2018-08-09T07:05:50.187Z,21.60
2018-08-09T07:08:21.514Z,21.60
2018-08-09T07:10:53.205Z,21.60
2018-08-09T07:13:24.564Z,21.60
2018-08-09T07:15:56.396Z,21.60
2018-08-09T07:18:28.054Z,21.60
2018-08-09T07:20:59.672Z,21.60
2018-08-09T07:23:31.519Z,21.60
2018-08-09T07:26:04.240Z,21.60
2018-08-09T07:28:35.413Z,21.60
2018-08-09T07:31:07.749Z,21.60
2018-08-09T07:33:38.747Z,21.70
2018-08-09T07:36:10.086Z,21.70
2018-08-09T07:38:42.503Z,21.70
2018-08-09T07:41:14.657Z,21.60
2018-08-09T07:43:46.993Z,21.70
2018-08-09T07:46:18.890Z,21.60
2018-08-09T07:48:50.458Z,21.70
2018-08-09T07:51:21.731Z,21.70
2018-08-09T07:53:53.549Z,21.70
2018-08-09T07:56:25.370Z,21.80
2018-08-09T07:58:57.448Z,21.80
2018-08-09T08:01:29.218Z,21.80
2018-08-09T08:04:01.076Z,21.90
2018-08-09T08:06:33.884Z,21.90
2018-08-09T08:09:08.917Z,21.90
2018-08-09T08:11:40.850Z,22.00
2018-08-09T08:14:13.566Z,22.00
2018-08-09T08:16:44.749Z,22.10
2018-08-09T08:19:16.205Z,22.10
2018-08-09T08:21:47.997Z,22.10
2018-08-09T08:24:19.983Z,22.20
2018-08-09T08:26:52.131Z,22.20
2018-08-09T08:29:23.880Z,22.30
2018-08-09T08:31:55.864Z,22.30
2018-08-09T08:34:28.691Z,22.30
2018-08-09T08:37:00.274Z,22.40
2018-08-09T08:39:31.941Z,22.40
2018-08-09T08:42:03.866Z,22.50
2018-08-09T08:44:35.872Z,22.50
2018-08-09T08:47:07.685Z,22.50
2018-08-09T08:49:39.508Z,22.60
2018-08-09T08:52:12.306Z,22.60
2018-08-09T08:54:44.840Z,22.50
2018-08-09T08:57:16.868Z,22.50
2018-08-09T08:59:48.728Z,22.60
2018-08-09T09:02:20.178Z,22.60
2018-08-09T09:04:52.836Z,22.60
2018-08-09T09:07:24.793Z,22.60
2018-08-09T09:09:57.528Z,22.60
2018-08-09T09:12:30.740Z,22.60
2018-08-09T09:15:02.852Z,22.60
2018-08-09T09:17:34.439Z,22.60
2018-08-09T09:20:08.320Z,22.60
2018-08-09T09:22:40.081Z,22.60
2018-08-09T09:25:12.202Z,22.70
2018-08-09T09:27:44.583Z,22.50
2018-08-09T09:30:18.834Z,22.60
2018-08-09T09:32:51.761Z,22.60
2018-08-09T09:35:23.126Z,22.70
2018-08-09T09:37:54.512Z,22.70
2018-08-09T09:40:26.160Z,22.80
2018-08-09T09:42:57.589Z,22.90
2018-08-09T09:45:30.191Z,23.00
2018-08-09T09:48:02.057Z,23.10
2018-08-09T09:50:33.603Z,23.30
2018-08-09T09:53:05.458Z,23.30
2018-08-09T09:55:38.139Z,23.40
2018-08-09T09:58:10.708Z,23.40
2018-08-09T10:00:46.872Z,23.30
2018-08-09T10:03:18.377Z,23.40
2018-08-09T10:05:50.088Z,23.60
2018-08-09T10:08:21.731Z,23.50
2018-08-09T10:10:54.787Z,23.40
2018-08-09T10:13:27.325Z,23.40
2018-08-09T10:15:59.067Z,23.50
2018-08-09T10:18:30.836Z,23.50
2018-08-09T10:21:03.412Z,23.50
2018-08-09T10:23:35.620Z,23.50
2018-08-09T10:26:07.225Z,23.50
2018-08-09T10:28:39.440Z,23.60
2018-08-09T10:31:11.049Z,23.70
2018-08-09T10:33:42.937Z,24.00
2018-08-09T10:36:16.334Z,24.00
2018-08-09T10:38:48.227Z,24.00
2018-08-09T10:41:20.582Z,24.10
2018-08-09T10:43:53.374Z,24.20
2018-08-09T10:46:25.246Z,24.30
2018-08-09T10:48:56.493Z,24.30
2018-08-09T10:51:28.855Z,24.50
2018-08-09T10:54:00.211Z,24.60
2018-08-09T10:56:32.057Z,24.60
2018-08-09T10:59:04.449Z,24.60
2018-08-09T11:01:36.623Z,24.80
2018-08-09T11:04:10.471Z,24.70
2018-08-09T11:06:42.012Z,24.60
2018-08-09T11:09:13.845Z,24.50
2018-08-09T11:11:45.724Z,24.40
2018-08-09T11:14:17.079Z,24.40
2018-08-09T11:16:48.918Z,24.30
2018-08-09T11:19:22.492Z,24.30
2018-08-09T11:21:55.206Z,24.30
2018-08-09T11:24:26.804Z,24.20
2018-08-09T11:26:58.194Z,24.20
2018-08-09T11:29:30.598Z,24.30
2018-08-09T11:32:02.152Z,24.30
2018-08-09T11:34:35.231Z,24.30
2018-08-09T11:37:06.784Z,24.60
2018-08-09T11:39:39.360Z,24.70
2018-08-09T11:42:11.347Z,24.60
2018-08-09T11:44:45.254Z,24.60
2018-08-09T11:47:17.596Z,24.50
2018-08-09T11:49:49.224Z,24.50
2018-08-09T11:52:21.126Z,24.50
2018-08-09T11:54:53.937Z,24.50
2018-08-09T11:57:25.800Z,24.50
2018-08-09T11:59:58.001Z,24.50
2018-08-09T12:02:30.504Z,24.50
2018-08-09T12:05:03.647Z,24.50
2018-08-09T12:07:35.048Z,24.40
2018-08-09T12:10:06.776Z,24.50
2018-08-09T12:12:39.242Z,24.50
2018-08-09T12:15:11.375Z,24.50
2018-08-09T12:17:45.023Z,24.50
2018-08-09T12:20:26.168Z,24.50
2018-08-09T12:22:58.692Z,24.50
2018-08-09T12:25:31.403Z,24.50
2018-08-09T12:28:04.275Z,24.60
2018-08-09T12:30:36.479Z,24.60
2018-08-09T12:33:18.310Z,24.60
2018-08-09T12:35:50.492Z,24.60
2018-08-09T12:38:22.073Z,24.60
2018-08-09T12:40:54.639Z,24.60
2018-08-09T12:43:26.417Z,24.60
2018-08-09T12:45:58.181Z,24.60
2018-08-09T12:48:30.074Z,24.60
2018-08-09T12:51:04.106Z,24.50
2018-08-09T12:53:37.073Z,24.50
2018-08-09T12:56:09.184Z,24.50
2018-08-09T12:58:41.023Z,24.50
2018-08-09T13:01:12.873Z,24.50
2018-08-09T13:03:45.815Z,24.60
2018-08-09T13:06:17.559Z,24.50
2018-08-09T13:08:50.627Z,24.50
2018-08-09T13:11:23.773Z,24.50
2018-08-09T13:13:55.619Z,24.50
2018-08-09T13:16:30.302Z,24.50
2018-08-09T13:19:02.852Z,24.50
2018-08-09T13:21:35.516Z,24.50
2018-08-09T13:24:07.014Z,24.60
2018-08-09T13:26:39.093Z,24.60
2018-08-09T13:29:11.092Z,24.60
2018-08-09T13:31:43.588Z,24.60
2018-08-09T13:34:16.359Z,24.70
2018-08-09T13:36:48.573Z,24.70
2018-08-09T13:39:21.216Z,24.70
2018-08-09T13:41:53.611Z,24.70
2018-08-09T13:44:26.793Z,24.70
2018-08-09T13:46:58.860Z,24.70
2018-08-09T13:49:31.785Z,24.70
2018-08-09T13:52:05.335Z,24.70
2018-08-09T13:54:36.463Z,24.70
2018-08-09T13:57:08.169Z,24.70
2018-08-09T13:59:41.640Z,24.70
2018-08-09T14:02:14.492Z,24.80
2018-08-09T14:04:46.588Z,24.70
2018-08-09T14:07:18.775Z,24.80
2018-08-09T14:09:51.788Z,24.70
2018-08-09T14:12:24.322Z,24.80
2018-08-09T14:14:55.902Z,24.80
2018-08-09T14:17:27.913Z,24.80
2018-08-09T14:20:02.053Z,24.90
2018-08-09T14:22:34.671Z,24.90
2018-08-09T14:25:07.017Z,24.90
2018-08-09T14:27:39.717Z,25.00
2018-08-09T14:30:17.052Z,25.00
2018-08-09T14:32:49.247Z,25.00
2018-08-09T14:35:21.179Z,25.00
2018-08-09T14:37:53.091Z,25.00
2018-08-09T14:40:25.839Z,25.00
2018-08-09T14:42:57.721Z,25.00
2018-08-09T14:45:30.260Z,25.00
2018-08-09T14:48:02.870Z,25.00
2018-08-09T14:50:35.214Z,25.00
2018-08-09T14:53:07.303Z,24.90
2018-08-09T14:55:39.312Z,24.90
2018-08-09T14:58:11.951Z,24.90
2018-08-09T15:00:44.597Z,24.90
2018-08-09T15:03:17.892Z,24.90
2018-08-09T15:05:50.092Z,24.90
2018-08-09T15:08:22.084Z,24.90
2018-08-09T15:10:54.591Z,24.90
2018-08-09T15:13:26.472Z,24.90
2018-08-09T15:15:58.947Z,24.80
2018-08-09T15:18:32.656Z,24.80
2018-08-09T15:21:04.688Z,24.80
2018-08-09T15:23:37.773Z,24.80
2018-08-09T15:26:12.629Z,24.80
2018-08-09T15:28:45.011Z,24.80
2018-08-09T15:31:16.854Z,24.80
2018-08-09T15:33:48.722Z,24.80
2018-08-09T15:36:21.930Z,24.80
2018-08-09T15:38:54.926Z,24.80
2018-08-09T15:41:27.574Z,24.80
2018-08-09T15:43:58.655Z,24.90
2018-08-09T15:46:30.295Z,24.90
2018-08-09T15:49:03.061Z,24.90
2018-08-09T15:51:35.537Z,24.90
2018-08-09T15:54:07.673Z,24.80
2018-08-09T15:56:39.364Z,24.80
2018-08-09T15:59:12.043Z,24.80
2018-08-09T16:01:45.208Z,24.80
2018-08-09T16:04:16.678Z,24.80
2018-08-09T16:06:48.402Z,24.80
2018-08-09T16:09:20.289Z,24.80
2018-08-09T16:11:52.727Z,24.80
2018-08-09T16:14:24.602Z,24.80
2018-08-09T16:16:58.258Z,24.80
2018-08-09T16:19:29.700Z,24.80
2018-08-09T16:22:02.508Z,24.80
2018-08-09T16:24:34.979Z,24.80
2018-08-09T16:27:07.545Z,24.80
2018-08-09T16:29:40.482Z,24.70
2018-08-09T16:32:14.262Z,24.70
2018-08-09T16:34:47.577Z,24.70
2018-08-09T16:37:22.236Z,24.70
2018-08-09T16:39:54.548Z,24.70
2018-08-09T16:42:30.762Z,24.70
2018-08-09T16:45:02.688Z,24.70
2018-08-09T16:47:34.775Z,24.70
2018-08-09T16:50:08.383Z,24.70
2018-08-09T16:52:39.950Z,24.70
2018-08-09T16:55:17.515Z,24.70
2018-08-09T16:57:54.699Z,24.70
2018-08-09T17:00:27.302Z,24.70
2018-08-09T17:02:59.626Z,24.70
2018-08-09T17:05:33.059Z,24.70
2018-08-09T17:08:05.839Z,24.70
2018-08-09T17:10:38.498Z,24.70
2018-08-09T17:13:10.385Z,24.70
2018-08-09T17:15:43.563Z,24.60
2018-08-09T17:18:18.178Z,24.50
2018-08-09T17:20:51.187Z,24.60
2018-08-09T17:23:26.587Z,24.60
2018-08-09T17:25:58.562Z,24.60
2018-08-09T17:28:31.193Z,24.60
2018-08-09T17:31:03.342Z,24.60
2018-08-09T17:33:35.982Z,24.50
2018-08-09T17:36:09.034Z,24.50
2018-08-09T17:38:40.499Z,24.50
2018-08-09T17:41:13.415Z,24.50
2018-08-09T17:43:48.916Z,24.50
2018-08-09T17:46:25.599Z,24.50
2018-08-09T17:48:58.516Z,24.50
2018-08-09T17:51:31.870Z,24.50
2018-08-09T17:54:03.920Z,24.50
2018-08-09T17:56:35.990Z,24.50
2018-08-09T17:59:07.369Z,24.50
2018-08-09T18:01:38.526Z,24.50
2018-08-09T18:04:10.569Z,24.40
2018-08-09T18:06:42.013Z,24.40
2018-08-09T18:09:15.410Z,24.40
2018-08-09T18:11:52.232Z,24.40
2018-08-09T18:14:24.455Z,24.40
2018-08-09T18:16:57.228Z,24.40
2018-08-09T18:19:29.687Z,24.40
2018-08-09T18:22:01.423Z,24.40
2018-08-09T18:24:32.750Z,24.40
2018-08-09T18:27:11.030Z,24.40
2018-08-09T18:29:43.914Z,24.30
2018-08-09T18:32:15.855Z,24.30
2018-08-09T18:34:56.873Z,24.30
2018-08-09T18:37:36.136Z,24.30
2018-08-09T18:40:10.694Z,24.30
2018-08-09T18:42:46.902Z,24.30
2018-08-09T18:45:19.672Z,24.30
2018-08-09T18:47:53.440Z,24.20
2018-08-09T18:50:29.455Z,24.20
2018-08-09T18:53:06.908Z,24.20
2018-08-09T18:55:40.388Z,24.20
2018-08-09T18:58:13.304Z,24.20
2018-08-09T19:00:46.299Z,24.20
2018-08-09T19:03:18.223Z,24.10
2018-08-09T19:05:50.599Z,24.10
2018-08-09T19:08:23.771Z,24.10
2018-08-09T19:10:56.816Z,24.10
2018-08-09T19:13:27.922Z,24.10
2018-08-09T19:16:00.982Z,24.10
2018-08-09T19:18:32.839Z,24.10
2018-08-09T19:21:06.681Z,24.10
2018-08-09T19:23:45.778Z,24.10
2018-08-09T19:26:20.678Z,24.10
2018-08-09T19:28:53.912Z,24.10
2018-08-09T19:31:27.324Z,24.10
2018-08-09T19:34:02.694Z,24.00
2018-08-09T19:36:35.402Z,24.00
2018-08-09T19:39:11.865Z,24.00
2018-08-09T19:41:44.544Z,24.00
2018-08-09T19:44:16.956Z,24.00
2018-08-09T19:46:48.927Z,24.00
2018-08-09T19:49:26.435Z,24.00
2018-08-09T19:51:59.834Z,24.00
2018-08-09T19:54:31.823Z,24.00
2018-08-09T19:57:03.661Z,23.90
2018-08-09T19:59:36.415Z,23.90
2018-08-09T20:02:09.182Z,23.90
2018-08-09T20:04:41.681Z,23.90
2018-08-09T20:07:14.310Z,23.80
2018-08-09T20:09:47.573Z,23.80
2018-08-09T20:12:21.416Z,23.10
2018-08-09T20:14:53.629Z,23.20
2018-08-09T20:17:25.809Z,23.40
2018-08-09T20:19:58.829Z,23.50
2018-08-09T20:22:31.041Z,23.60
2018-08-09T20:25:02.608Z,23.60
2018-08-09T20:27:34.569Z,23.60
2018-08-09T20:30:08.703Z,23.60
2018-08-09T20:32:42.144Z,23.60
2018-08-09T20:35:22.079Z,23.60
2018-08-09T20:37:55.913Z,23.60
2018-08-09T20:40:28.425Z,23.60
2018-08-09T20:43:01.629Z,23.60
2018-08-09T20:45:33.525Z,23.50
2018-08-09T20:48:06.064Z,23.60
2018-08-09T20:50:37.724Z,23.50
2018-08-09T20:53:10.911Z,23.50
2018-08-09T20:55:43.416Z,23.50
2018-08-09T20:58:15.627Z,23.50
2018-08-09T21:00:47.849Z,23.50
2018-08-09T21:03:20.123Z,23.50
2018-08-09T21:05:54.348Z,23.50
2018-08-09T21:08:27.182Z,23.40
2018-08-09T21:10:58.745Z,23.40
2018-08-09T21:13:30.977Z,23.40
2018-08-09T21:16:03.387Z,23.40
2018-08-09T21:18:35.898Z,23.40
2018-08-09T21:21:09.832Z,23.40
2018-08-09T21:23:43.697Z,23.40
2018-08-09T21:26:15.278Z,23.40
2018-08-09T21:28:47.551Z,23.30
2018-08-09T21:31:19.617Z,23.30
2018-08-09T21:33:52.399Z,23.30
2018-08-09T21:36:24.850Z,23.30
2018-08-09T21:38:56.608Z,23.30
2018-08-09T21:41:29.033Z,23.30
2018-08-09T21:44:00.537Z,23.30
2018-08-09T21:46:32.222Z,23.20
2018-08-09T21:49:03.947Z,23.20
2018-08-09T21:51:36.929Z,23.20
2018-08-09T21:54:09.796Z,23.20
2018-08-09T21:56:42.179Z,23.20
2018-08-09T21:59:15.734Z,23.20
2018-08-09T22:01:47.414Z,23.20
2018-08-09T22:04:19.908Z,23.10
2018-08-09T22:06:56.416Z,23.10
2018-08-09T22:09:33.044Z,23.10
2018-08-09T22:12:11.367Z,23.10
2018-08-09T22:16:56.319Z,23.10
2018-08-09T22:19:33.764Z,23.10
2018-08-09T22:22:09.902Z,23.10
2018-08-09T22:24:42.381Z,23.10
2018-08-09T22:27:16.732Z,23.10
2018-08-09T22:29:48.569Z,23.10
2018-08-09T22:32:20.426Z,23.00
2018-08-09T22:34:52.026Z,23.00
2018-08-09T22:37:23.686Z,23.00
2018-08-09T22:39:56.180Z,23.00
2018-08-09T22:42:27.852Z,23.00
2018-08-09T22:44:59.137Z,23.00
2018-08-09T22:47:33.130Z,23.00
2018-08-09T22:50:05.235Z,23.00
2018-08-09T22:52:37.112Z,22.90
2018-08-09T22:55:08.924Z,22.90
2018-08-09T22:57:40.675Z,22.90
2018-08-09T23:00:21.357Z,22.90
2018-08-09T23:02:53.735Z,22.90
2018-08-09T23:05:26.800Z,22.90
2018-08-09T23:07:58.892Z,22.90
2018-08-09T23:10:31.344Z,22.90
2018-08-09T23:13:02.906Z,22.90
2018-08-09T23:15:34.866Z,22.90
2018-08-09T23:18:07.407Z,22.80
2018-08-09T23:20:39.595Z,22.80
2018-08-09T23:23:11.627Z,22.80
2018-08-09T23:25:44.104Z,22.80
2018-08-09T23:28:16.370Z,22.70
2018-08-09T23:30:49.899Z,22.70
2018-08-09T23:33:24.664Z,22.80
2018-08-09T23:35:57.705Z,22.70
2018-08-09T23:38:48.203Z,22.70
2018-08-09T23:41:19.468Z,22.70
2018-08-09T23:43:50.782Z,22.70
2018-08-09T23:46:22.502Z,22.70
2018-08-09T23:48:54.078Z,22.70
2018-08-09T23:51:26.038Z,22.60
2018-08-09T23:53:58.442Z,22.60
2018-08-09T23:56:30.997Z,22.60
2018-08-09T23:59:02.620Z,22.60
